createdAt,value
2023-01-30T00:00:33.172Z,92.51
2023-01-30T00:02:34.671Z,93.24
2023-01-30T00:04:36.098Z,92.72
2023-01-30T00:06:38.325Z,92.84
2023-01-30T00:08:39.970Z,93.29
2023-01-30T00:10:41.891Z,93.45
2023-01-30T00:12:43.669Z,92.99
2023-01-30T00:14:45.163Z,93.31
2023-01-30T00:16:46.801Z,92.92
2023-01-30T00:18:48.453Z,93.54
2023-01-30T00:20:56.022Z,94.63
2023-01-30T00:23:01.148Z,94.89
2023-01-30T00:25:21.424Z,95.69
2023-01-30T00:27:23.284Z,95.30
2023-01-30T00:29:24.879Z,95.45
2023-01-30T00:31:26.519Z,95.49
2023-01-30T00:33:28.836Z,95.21
2023-01-30T00:35:30.371Z,95.45
2023-01-30T00:37:32.664Z,96.22
2023-01-30T00:39:34.480Z,95.60
2023-01-30T00:41:55.259Z,95.87
2023-01-30T00:44:15.228Z,94.64
2023-01-30T00:46:52.684Z,94.49
2023-01-30T00:48:54.983Z,94.57
2023-01-30T00:50:56.711Z,94.82
2023-01-30T00:52:58.448Z,94.32
2023-01-30T00:54:59.997Z,94.26
2023-01-30T00:57:01.717Z,93.65
2023-01-30T00:59:03.412Z,93.81
2023-01-30T01:01:05.135Z,94.35
2023-01-30T01:03:08.002Z,94.55
2023-01-30T01:05:10.062Z,94.68
2023-01-30T01:07:14.889Z,94.57
2023-01-30T01:09:16.576Z,95.38
2023-01-30T01:11:24.162Z,94.81
2023-01-30T01:13:25.867Z,95.38
2023-01-30T01:15:27.557Z,95.08
2023-01-30T01:17:29.694Z,95.23
2023-01-30T01:19:31.329Z,95.37
2023-01-30T01:21:34.269Z,94.54
2023-01-30T01:23:36.217Z,95.12
2023-01-30T01:25:37.925Z,95.75
2023-01-30T01:27:41.409Z,96.06
2023-01-30T01:29:43.391Z,94.94
2023-01-30T01:31:45.279Z,95.14
2023-01-30T01:33:46.948Z,95.77
2023-01-30T01:35:48.566Z,95.98
2023-01-30T01:37:54.878Z,95.65
2023-01-30T01:40:15.307Z,95.08
2023-01-30T01:42:17.841Z,95.87
2023-01-30T01:44:19.647Z,96.28
2023-01-30T01:46:27.880Z,95.91
2023-01-30T01:48:36.661Z,96.04
2023-01-30T01:51:04.815Z,96.32
2023-01-30T01:53:32.190Z,96.48
2023-01-30T01:55:57.020Z,96.58
2023-01-30T01:58:25.906Z,96.71
2023-01-30T02:00:49.175Z,96.66
2023-01-30T02:03:15.494Z,96.18
2023-01-30T02:05:44.099Z,96.65
2023-01-30T02:08:13.376Z,97.10
2023-01-30T02:11:13.802Z,97.55
2023-01-30T02:13:35.537Z,97.54
2023-01-30T02:15:59.845Z,97.14
2023-01-30T02:22:52.299Z,97.06
2023-01-30T02:26:09.420Z,97.60
2023-01-30T02:29:19.941Z,97.00
2023-01-30T02:32:03.315Z,97.48
2023-01-30T02:34:57.410Z,97.83
2023-01-30T02:38:04.048Z,97.58
2023-01-30T02:40:49.082Z,97.29
2023-01-30T02:43:35.665Z,97.12
2023-01-30T02:46:02.587Z,97.37
2023-01-30T02:48:30.489Z,96.86
2023-01-30T02:51:15.281Z,97.44
2023-01-30T02:53:38.023Z,97.60
2023-01-30T02:56:00.610Z,97.93
2023-01-30T02:58:24.155Z,98.00
2023-01-30T03:01:11.194Z,97.57
2023-01-30T03:03:39.589Z,97.21
2023-01-30T03:06:15.821Z,97.35
2023-01-30T03:08:55.507Z,97.16
2023-01-30T03:11:17.923Z,97.81
2023-01-30T03:13:52.740Z,97.47
2023-01-30T03:16:21.087Z,97.64
2023-01-30T03:18:44.070Z,96.94
2023-01-30T03:21:06.137Z,96.73
2023-01-30T03:23:27.657Z,96.93
2023-01-30T03:25:49.238Z,97.37
2023-01-30T03:28:13.372Z,96.45
2023-01-30T03:30:35.328Z,96.81
2023-01-30T03:33:03.295Z,97.00
2023-01-30T03:35:25.094Z,97.61
2023-01-30T03:37:47.622Z,97.26
2023-01-30T03:40:10.182Z,97.23
2023-01-30T03:42:32.651Z,97.51
2023-01-30T03:44:54.277Z,97.36
2023-01-30T03:47:15.815Z,97.83
2023-01-30T03:49:37.421Z,97.65
2023-01-30T03:51:59.227Z,98.03
2023-01-30T03:54:21.176Z,97.53
2023-01-30T03:56:42.967Z,97.81
2023-01-30T03:59:04.571Z,97.61
2023-01-30T04:01:34.581Z,97.67
2023-01-30T04:03:57.039Z,97.22
2023-01-30T04:06:22.172Z,97.29
2023-01-30T04:08:44.106Z,97.08
2023-01-30T04:11:15.324Z,97.92
2023-01-30T04:13:37.405Z,97.45
2023-01-30T04:16:17.692Z,97.42
2023-01-30T04:19:02.069Z,97.42
2023-01-30T04:21:26.928Z,97.31
2023-01-30T04:23:48.539Z,97.29
2023-01-30T04:26:10.627Z,96.80
2023-01-30T04:28:35.065Z,96.95
2023-01-30T04:30:57.213Z,97.56
2023-01-30T04:33:51.245Z,97.68
2023-01-30T04:36:13.529Z,96.69
2023-01-30T04:38:36.828Z,97.24
2023-01-30T04:41:00.103Z,97.40
2023-01-30T04:43:25.772Z,97.78
2023-01-30T04:45:48.602Z,97.36
2023-01-30T04:48:10.455Z,97.44
2023-01-30T04:50:33.120Z,98.12
2023-01-30T04:52:55.038Z,98.47
2023-01-30T04:55:16.887Z,98.29
2023-01-30T04:57:38.531Z,98.50
2023-01-30T05:00:00.166Z,98.69
2023-01-30T05:02:23.148Z,98.29
2023-01-30T05:04:45.492Z,97.92
2023-01-30T05:07:07.144Z,97.89
2023-01-30T05:09:28.682Z,97.68
2023-01-30T05:11:50.303Z,97.53
2023-01-30T05:14:11.852Z,97.27
2023-01-30T05:16:33.384Z,97.46
2023-01-30T05:18:55.279Z,97.52
2023-01-30T05:21:22.869Z,98.10
2023-01-30T05:23:44.958Z,98.23
2023-01-30T05:26:07.063Z,98.75
2023-01-30T05:28:29.383Z,98.80
2023-01-30T05:30:50.979Z,98.51
2023-01-30T05:33:12.570Z,97.82
2023-01-30T05:35:34.080Z,98.60
2023-01-30T05:37:55.584Z,98.59
2023-01-30T05:39:57.167Z,98.63
2023-01-30T05:41:58.973Z,98.79
2023-01-30T05:44:00.523Z,98.63
2023-01-30T05:46:04.403Z,98.68
2023-01-30T05:48:06.515Z,97.86
2023-01-30T05:50:09.537Z,98.03
2023-01-30T05:52:11.192Z,98.06
2023-01-30T05:54:13.042Z,98.35
2023-01-30T05:56:15.659Z,98.56
2023-01-30T05:58:17.202Z,99.15
2023-01-30T06:00:19.242Z,99.02
2023-01-30T06:02:20.818Z,98.50
2023-01-30T06:04:22.524Z,98.31
2023-01-30T06:06:25.108Z,98.44
2023-01-30T06:08:27.054Z,98.59
2023-01-30T06:10:28.663Z,98.76
2023-01-30T06:12:30.367Z,98.74
2023-01-30T06:14:31.981Z,98.16
2023-01-30T06:16:33.732Z,98.18
2023-01-30T06:18:36.144Z,98.58
2023-01-30T06:20:37.869Z,98.16
2023-01-30T06:22:39.493Z,99.02
2023-01-30T06:24:41.164Z,99.04
2023-01-30T06:26:42.717Z,98.63
2023-01-30T06:28:44.331Z,98.67
2023-01-30T06:30:46.020Z,98.94
2023-01-30T06:32:50.918Z,98.82
2023-01-30T06:34:52.423Z,98.73
2023-01-30T06:36:53.902Z,98.62
2023-01-30T06:38:55.574Z,98.83
2023-01-30T06:40:57.155Z,98.48
2023-01-30T06:42:58.689Z,98.87
2023-01-30T06:45:00.268Z,98.66
2023-01-30T06:47:01.995Z,98.69
2023-01-30T06:49:03.756Z,98.43
2023-01-30T06:51:05.456Z,98.88
2023-01-30T06:53:08.505Z,98.53
2023-01-30T06:55:14.098Z,98.81
2023-01-30T06:57:16.518Z,99.02
2023-01-30T06:59:18.148Z,99.17
2023-01-30T07:01:21.094Z,98.78
2023-01-30T07:03:22.787Z,98.26
2023-01-30T07:05:24.506Z,98.15
2023-01-30T07:07:26.684Z,98.78
2023-01-30T07:09:28.363Z,99.28
2023-01-30T07:11:31.170Z,98.93
2023-01-30T07:13:32.801Z,99.44
2023-01-30T07:15:34.642Z,99.51
2023-01-30T07:17:36.179Z,99.32
2023-01-30T07:19:38.887Z,99.67
2023-01-30T07:21:40.777Z,99.42
2023-01-30T07:23:43.670Z,99.92
2023-01-30T07:25:45.197Z,100.00
2023-01-30T07:28:00.686Z,99.54
2023-01-30T07:30:02.306Z,99.91
2023-01-30T07:32:05.305Z,99.37
2023-01-30T07:34:06.712Z,99.69
2023-01-30T07:36:08.631Z,99.95
2023-01-30T07:38:10.187Z,99.60
2023-01-30T07:40:12.733Z,99.70
2023-01-30T07:42:40.173Z,99.48
2023-01-30T07:44:42.059Z,99.19
2023-01-30T07:46:43.757Z,99.04
2023-01-30T07:48:46.566Z,98.90
2023-01-30T07:50:48.161Z,98.08
2023-01-30T07:52:49.700Z,98.98
2023-01-30T07:54:51.605Z,99.00
2023-01-30T07:57:19.839Z,98.81
2023-01-30T07:59:21.750Z,98.78
2023-01-30T08:01:23.644Z,98.86
2023-01-30T08:03:25.380Z,98.72
2023-01-30T08:05:27.058Z,98.69
2023-01-30T08:07:28.669Z,98.60
2023-01-30T08:09:30.223Z,99.23
2023-01-30T08:11:31.767Z,99.09
2023-01-30T08:13:47.146Z,99.17
2023-01-30T08:15:48.851Z,99.35
2023-01-30T08:17:55.448Z,99.34
2023-01-30T08:19:57.021Z,99.37
2023-01-30T08:21:59.288Z,99.84
2023-01-30T08:24:01.426Z,99.92
2023-01-30T08:26:06.190Z,100.00
2023-01-30T08:28:07.856Z,100.00
2023-01-30T08:30:11.214Z,100.00
2023-01-30T08:32:14.721Z,100.00
2023-01-30T08:34:16.974Z,99.77
2023-01-30T08:36:18.517Z,99.44
2023-01-30T08:38:20.032Z,99.67
2023-01-30T08:40:21.662Z,100.00
2023-01-30T08:42:23.239Z,100.00
2023-01-30T08:44:24.873Z,100.00
2023-01-30T08:46:26.787Z,100.00
2023-01-30T08:48:36.707Z,100.00
2023-01-30T08:50:41.605Z,100.00
2023-01-30T08:52:43.747Z,100.00
2023-01-30T08:54:45.542Z,100.00
2023-01-30T08:56:47.565Z,100.00
2023-01-30T08:58:49.091Z,100.00
2023-01-30T09:00:50.738Z,100.00
2023-01-30T09:02:58.035Z,100.00
2023-01-30T09:04:59.579Z,99.83
2023-01-30T09:07:02.067Z,99.74
2023-01-30T09:09:03.914Z,100.00
2023-01-30T09:11:06.303Z,100.00
2023-01-30T09:13:09.747Z,100.00
2023-01-30T09:15:11.414Z,100.00
2023-01-30T09:17:13.816Z,100.00
2023-01-30T09:19:15.425Z,100.00
2023-01-30T09:21:17.081Z,100.00
2023-01-30T09:23:18.945Z,100.00
2023-01-30T09:25:20.531Z,100.00
2023-01-30T09:27:22.164Z,100.00
2023-01-30T09:29:23.849Z,100.00
2023-01-30T09:31:25.729Z,100.00
2023-01-30T09:33:27.851Z,100.00
2023-01-30T09:35:30.636Z,100.00
2023-01-30T09:37:32.961Z,100.00
2023-01-30T09:39:34.759Z,100.00
2023-01-30T09:41:42.293Z,100.00
2023-01-30T09:43:55.834Z,99.85
2023-01-30T09:46:16.363Z,100.00
2023-01-30T09:48:24.923Z,100.00
2023-01-30T09:51:07.860Z,100.00
2023-01-30T09:53:36.862Z,100.00
2023-01-30T09:55:41.485Z,100.00
2023-01-30T09:57:45.171Z,100.00
2023-01-30T09:59:55.802Z,100.00
2023-01-30T10:02:09.531Z,100.00
2023-01-30T10:04:17.500Z,100.00
2023-01-30T10:06:20.313Z,99.94
2023-01-30T10:08:49.841Z,100.00
2023-01-30T10:11:10.021Z,100.00
2023-01-30T10:13:31.213Z,100.00
2023-01-30T10:15:36.074Z,100.00
2023-01-30T10:17:47.200Z,100.00
2023-01-30T10:19:57.837Z,99.19
2023-01-30T10:22:08.088Z,98.99
2023-01-30T10:24:28.518Z,99.27
2023-01-30T10:26:31.300Z,99.54
2023-01-30T10:28:40.867Z,99.88
2023-01-30T10:30:46.221Z,100.00
2023-01-30T10:32:59.971Z,100.00
2023-01-30T10:35:34.305Z,100.00
2023-01-30T10:37:47.520Z,100.00
2023-01-30T10:40:37.820Z,100.00
2023-01-30T10:43:17.237Z,100.00
2023-01-30T10:45:21.332Z,100.00
2023-01-30T10:47:23.102Z,100.00
2023-01-30T10:49:43.697Z,100.00
2023-01-30T10:52:01.456Z,100.00
2023-01-30T10:54:23.112Z,100.00
2023-01-30T10:56:49.530Z,100.00
2023-01-30T10:59:00.427Z,100.00
2023-01-30T11:01:16.935Z,100.00
2023-01-30T11:03:36.319Z,100.00
2023-01-30T11:05:56.223Z,99.87
2023-01-30T11:07:58.041Z,99.99
2023-01-30T11:10:00.311Z,100.00
2023-01-30T11:12:01.964Z,99.75
2023-01-30T11:14:09.716Z,99.64
2023-01-30T11:16:13.021Z,98.99
2023-01-30T11:20:44.051Z,98.69
2023-01-30T11:23:06.967Z,98.84
2023-01-30T11:25:17.333Z,98.82
2023-01-30T11:27:30.632Z,98.74
2023-01-30T11:29:34.965Z,98.41
2023-01-30T11:31:41.756Z,98.01
2023-01-30T11:33:44.383Z,97.70
2023-01-30T11:36:02.758Z,97.99
2023-01-30T11:38:21.512Z,97.87
2023-01-30T11:40:27.677Z,96.60
2023-01-30T11:42:32.167Z,95.73
2023-01-30T11:44:36.855Z,96.57
2023-01-30T11:46:40.616Z,96.71
2023-01-30T11:49:09.128Z,96.44
2023-01-30T11:51:11.259Z,97.22
2023-01-30T11:53:25.575Z,96.94
2023-01-30T11:55:27.490Z,97.46
2023-01-30T11:57:29.112Z,97.10
2023-01-30T11:59:38.160Z,97.24
2023-01-30T12:01:39.788Z,97.63
2023-01-30T12:03:49.062Z,96.76
2023-01-30T12:05:51.036Z,97.37
2023-01-30T12:07:53.194Z,97.59
2023-01-30T12:09:57.185Z,97.69
2023-01-30T12:11:58.786Z,97.08
2023-01-30T12:14:25.331Z,96.72
2023-01-30T12:16:46.611Z,96.72
2023-01-30T12:18:57.254Z,96.49
2023-01-30T12:21:00.258Z,96.63
2023-01-30T12:23:07.842Z,97.19
2023-01-30T12:25:15.993Z,97.13
2023-01-30T12:27:29.599Z,96.97
2023-01-30T12:29:35.672Z,97.04
2023-01-30T12:31:47.640Z,97.23
2023-01-30T12:33:49.536Z,97.92
2023-01-30T12:36:05.510Z,98.10
2023-01-30T12:38:33.068Z,98.25
2023-01-30T12:41:05.964Z,98.35
2023-01-30T12:43:45.218Z,98.57
2023-01-30T12:46:03.967Z,97.62
2023-01-30T12:48:14.731Z,97.92
2023-01-30T12:50:26.405Z,97.77
2023-01-30T12:52:35.724Z,97.49
2023-01-30T12:55:02.357Z,97.77
2023-01-30T12:57:06.851Z,97.51
2023-01-30T12:59:17.581Z,97.41
2023-01-30T13:01:34.192Z,97.02
2023-01-30T13:03:35.665Z,96.42
2023-01-30T13:05:47.459Z,97.31
2023-01-30T13:08:20.062Z,96.85
2023-01-30T13:10:33.783Z,97.20
2023-01-30T13:12:51.388Z,98.06
2023-01-30T13:15:34.619Z,97.75
2023-01-30T13:17:50.530Z,97.68
2023-01-30T13:20:08.021Z,97.69
2023-01-30T13:22:35.451Z,97.78
2023-01-30T13:24:53.153Z,97.60
2023-01-30T13:26:58.521Z,96.83
2023-01-30T13:29:04.702Z,96.71
2023-01-30T13:31:11.116Z,97.24
2023-01-30T13:33:22.734Z,97.69
2023-01-30T13:35:32.996Z,97.56
2023-01-30T13:37:37.711Z,97.24
2023-01-30T13:40:12.948Z,97.72
2023-01-30T13:42:41.508Z,97.49
2023-01-30T13:44:44.495Z,97.60
2023-01-30T13:46:47.373Z,97.69
2023-01-30T13:48:48.820Z,98.11
2023-01-30T13:51:28.080Z,98.19
2023-01-30T13:53:38.043Z,97.84
2023-01-30T13:55:58.063Z,98.08
2023-01-30T13:58:25.004Z,97.48
2023-01-30T14:00:28.712Z,97.38
2023-01-30T14:02:30.283Z,97.88
2023-01-30T14:04:40.892Z,97.31
2023-01-30T14:06:42.603Z,96.51
2023-01-30T14:08:48.068Z,97.13
2023-01-30T14:10:50.223Z,97.90
2023-01-30T14:12:55.729Z,98.36
2023-01-30T14:15:04.591Z,97.58
2023-01-30T14:17:14.253Z,97.68
2023-01-30T14:19:27.939Z,97.19
2023-01-30T14:21:30.146Z,96.99
2023-01-30T14:23:36.226Z,97.18
2023-01-30T14:25:50.072Z,97.29
2023-01-30T14:27:53.600Z,97.18
2023-01-30T14:29:55.605Z,97.26
2023-01-30T14:31:57.419Z,97.33
2023-01-30T14:33:59.231Z,98.29
2023-01-30T14:36:01.199Z,98.34
2023-01-30T14:38:19.792Z,97.80
2023-01-30T14:40:21.320Z,100.00
2023-01-30T14:42:27.975Z,97.31
2023-01-30T14:44:55.585Z,97.28
2023-01-30T14:46:57.888Z,97.65
2023-01-30T14:49:24.933Z,97.71
2023-01-30T14:51:47.736Z,97.56
2023-01-30T14:53:56.475Z,97.58
2023-01-30T14:56:02.245Z,98.32
2023-01-30T14:58:05.139Z,98.56
2023-01-30T15:00:19.348Z,98.20
2023-01-30T15:02:34.377Z,96.66
2023-01-30T15:04:51.723Z,96.52
2023-01-30T15:06:54.750Z,96.73
2023-01-30T15:08:56.658Z,95.72
2023-01-30T15:11:09.081Z,96.37
2023-01-30T15:13:27.309Z,96.77
2023-01-30T15:15:31.587Z,95.60
2023-01-30T15:17:58.239Z,95.92
2023-01-30T15:20:35.284Z,96.59
2023-01-30T15:23:04.086Z,97.04
2023-01-30T15:25:05.566Z,96.84
2023-01-30T15:27:13.068Z,97.01
2023-01-30T15:29:25.088Z,96.31
2023-01-30T15:31:26.776Z,96.89
2023-01-30T15:33:32.097Z,97.05
2023-01-30T15:35:33.936Z,97.58
2023-01-30T15:37:47.093Z,97.61
2023-01-30T15:39:48.699Z,97.60
2023-01-30T15:41:57.134Z,96.99
2023-01-30T15:44:13.823Z,97.09
2023-01-30T15:46:46.096Z,97.18
2023-01-30T15:48:47.521Z,97.59
2023-01-30T15:50:53.516Z,97.49
2023-01-30T15:52:57.369Z,97.19
2023-01-30T15:55:02.017Z,96.55
2023-01-30T15:57:03.820Z,97.24
2023-01-30T15:59:06.920Z,96.19
2023-01-30T16:01:09.856Z,96.45
2023-01-30T16:03:16.676Z,96.76
2023-01-30T16:05:22.820Z,96.22
2023-01-30T16:07:26.669Z,96.11
2023-01-30T16:09:28.442Z,96.12
2023-01-30T16:11:41.594Z,96.77
2023-01-30T16:13:43.206Z,96.02
2023-01-30T16:15:53.960Z,96.04
2023-01-30T16:18:03.691Z,96.47
2023-01-30T16:20:14.399Z,95.91
2023-01-30T16:22:19.783Z,96.33
2023-01-30T16:24:25.079Z,95.21
2023-01-30T16:26:27.005Z,95.48
2023-01-30T16:28:30.532Z,96.00
2023-01-30T16:30:32.402Z,95.60
2023-01-30T16:32:34.245Z,95.36
2023-01-30T16:34:37.738Z,94.98
2023-01-30T16:36:40.587Z,94.91
2023-01-30T16:38:44.796Z,94.14
2023-01-30T16:40:46.635Z,94.33
2023-01-30T16:42:57.131Z,93.65
2023-01-30T16:45:35.838Z,93.40
2023-01-30T16:47:38.350Z,93.39
2023-01-30T16:49:46.022Z,93.11
2023-01-30T16:51:51.009Z,92.92
2023-01-30T16:54:01.390Z,92.25
2023-01-30T16:56:16.936Z,92.34
2023-01-30T16:58:18.725Z,92.20
2023-01-30T17:00:38.027Z,92.93
2023-01-30T17:02:51.145Z,92.50
2023-01-30T17:04:52.794Z,92.15
2023-01-30T17:07:04.492Z,91.35
2023-01-30T17:09:34.086Z,89.98
2023-01-30T17:11:38.871Z,88.34
2023-01-30T17:13:43.866Z,87.28
2023-01-30T17:15:45.488Z,85.33
2023-01-30T17:17:47.414Z,83.90
2023-01-30T17:19:48.969Z,84.15
2023-01-30T17:21:51.504Z,84.58
2023-01-30T17:23:57.355Z,85.80
2023-01-30T17:25:59.427Z,85.82
2023-01-30T17:28:01.565Z,86.66
2023-01-30T17:30:06.030Z,87.15
2023-01-30T17:32:11.451Z,87.00
2023-01-30T17:34:13.046Z,87.87
2023-01-30T17:36:24.116Z,87.70
2023-01-30T17:38:25.952Z,87.97
2023-01-30T17:40:33.704Z,87.49
2023-01-30T17:42:35.231Z,88.48
2023-01-30T17:44:36.969Z,88.30
2023-01-30T17:46:40.946Z,89.18
2023-01-30T17:48:44.290Z,88.60
2023-01-30T17:50:45.827Z,89.75
2023-01-30T17:52:47.434Z,89.40
2023-01-30T17:54:48.935Z,88.35
2023-01-30T17:57:01.877Z,89.01
2023-01-30T17:59:10.957Z,89.58
2023-01-30T18:01:15.005Z,90.10
2023-01-30T18:03:16.792Z,90.36
2023-01-30T18:05:18.522Z,89.52
2023-01-30T18:07:22.443Z,89.71
2023-01-30T18:09:24.976Z,89.68
2023-01-30T18:11:27.710Z,88.82
2023-01-30T18:13:29.275Z,88.31
2023-01-30T18:15:32.059Z,88.40
2023-01-30T18:17:35.670Z,89.39
2023-01-30T18:19:37.684Z,89.00
2023-01-30T18:21:40.275Z,88.29
2023-01-30T18:23:42.014Z,89.01
2023-01-30T18:25:43.590Z,88.75
2023-01-30T18:27:47.089Z,91.30
2023-01-30T18:29:49.288Z,89.39
2023-01-30T18:31:50.955Z,89.17
2023-01-30T18:33:53.474Z,89.21
2023-01-30T18:35:55.021Z,90.21
2023-01-30T18:38:01.642Z,90.15
2023-01-30T18:40:04.729Z,90.22
2023-01-30T18:42:07.739Z,90.03
2023-01-30T18:44:10.961Z,90.22
2023-01-30T18:46:15.334Z,90.75
2023-01-30T18:48:16.958Z,91.03
2023-01-30T18:50:19.061Z,90.82
2023-01-30T18:52:20.810Z,91.72
2023-01-30T18:54:22.404Z,92.43
2023-01-30T18:56:30.708Z,92.46
2023-01-30T18:58:32.797Z,92.43
2023-01-30T19:00:34.333Z,92.50
2023-01-30T19:02:36.240Z,91.94
2023-01-30T19:04:38.028Z,91.55
2023-01-30T19:06:42.301Z,91.26
2023-01-30T19:08:45.169Z,90.77
2023-01-30T19:10:46.671Z,90.70
2023-01-30T19:13:06.988Z,90.62
2023-01-30T19:15:09.438Z,90.33
2023-01-30T19:17:11.519Z,89.63
2023-01-30T19:19:13.167Z,89.50
2023-01-30T19:21:14.710Z,90.13
2023-01-30T19:23:16.279Z,90.44
2023-01-30T19:25:17.888Z,90.52
2023-01-30T19:27:19.497Z,90.18
2023-01-30T19:29:21.089Z,90.90
2023-01-30T19:31:23.112Z,91.02
2023-01-30T19:33:24.781Z,91.53
2023-01-30T19:35:26.302Z,90.39
2023-01-30T19:37:27.865Z,90.52
2023-01-30T19:39:29.402Z,90.59
2023-01-30T19:41:34.169Z,90.98
2023-01-30T19:43:38.302Z,91.21
2023-01-30T19:45:42.125Z,91.51
2023-01-30T19:47:43.650Z,91.33
2023-01-30T19:49:45.129Z,90.91
2023-01-30T19:51:46.633Z,90.33
2023-01-30T19:53:54.214Z,89.63
2023-01-30T19:55:55.825Z,89.40
2023-01-30T19:57:57.355Z,90.04
2023-01-30T19:59:58.933Z,89.44
2023-01-30T20:02:00.479Z,89.50
2023-01-30T20:04:02.526Z,89.49
2023-01-30T20:06:08.543Z,88.86
2023-01-30T20:08:21.777Z,89.31
2023-01-30T20:10:31.430Z,89.43
2023-01-30T20:12:35.502Z,89.78
2023-01-30T20:14:37.474Z,88.77
2023-01-30T20:16:39.983Z,88.68
2023-01-30T20:18:41.919Z,87.76
2023-01-30T20:20:43.495Z,87.76
2023-01-30T20:22:45.341Z,88.04
2023-01-30T20:24:48.204Z,87.11
2023-01-30T20:26:50.177Z,88.12
2023-01-30T20:28:54.505Z,87.68
2023-01-30T20:30:56.043Z,87.71
2023-01-30T20:32:57.623Z,88.20
2023-01-30T20:34:59.146Z,88.31
2023-01-30T20:37:00.741Z,88.07
2023-01-30T20:39:04.238Z,87.84
2023-01-30T20:41:11.615Z,88.31
2023-01-30T20:43:13.150Z,88.36
2023-01-30T20:45:14.727Z,87.65
2023-01-30T20:47:16.346Z,88.09
2023-01-30T20:49:22.532Z,88.04
2023-01-30T20:51:29.766Z,88.02
2023-01-30T20:53:31.509Z,88.11
2023-01-30T20:55:33.835Z,88.20
2023-01-30T20:57:36.107Z,87.75
2023-01-30T20:59:38.356Z,87.42
2023-01-30T21:01:40.523Z,87.64
2023-01-30T21:03:44.664Z,87.18
2023-01-30T21:05:56.799Z,87.54
2023-01-30T21:07:58.356Z,87.44
2023-01-30T21:10:00.145Z,87.37
2023-01-30T21:12:02.113Z,87.53
2023-01-30T21:14:04.365Z,87.62
2023-01-30T21:16:10.997Z,87.57
2023-01-30T21:18:12.605Z,87.50
2023-01-30T21:20:14.101Z,87.44
2023-01-30T21:22:15.743Z,87.35
2023-01-30T21:24:28.250Z,88.11
2023-01-30T21:26:31.963Z,87.64
2023-01-30T21:28:35.126Z,88.37
2023-01-30T21:30:37.037Z,88.15
2023-01-30T21:32:39.069Z,87.98
2023-01-30T21:34:40.914Z,87.96
2023-01-30T21:36:42.416Z,88.03
2023-01-30T21:39:02.896Z,88.21
2023-01-30T21:41:23.296Z,87.77
2023-01-30T21:43:24.804Z,88.34
2023-01-30T21:45:26.563Z,87.72
2023-01-30T21:47:28.494Z,88.16
2023-01-30T21:49:30.037Z,88.41
2023-01-30T21:51:32.106Z,88.36
2023-01-30T21:53:33.643Z,88.95
2023-01-30T21:55:35.182Z,88.45
2023-01-30T21:57:36.709Z,88.99
2023-01-30T21:59:38.931Z,89.37
2023-01-30T22:01:41.667Z,89.06
2023-01-30T22:03:43.509Z,88.50
2023-01-30T22:05:45.397Z,87.99
2023-01-30T22:07:46.974Z,87.81
2023-01-30T22:09:48.959Z,87.81
2023-01-30T22:11:52.302Z,87.75
2023-01-30T22:13:54.917Z,87.12
2023-01-30T22:16:02.901Z,88.10
2023-01-30T22:18:06.099Z,87.98
2023-01-30T22:20:10.066Z,88.21
2023-01-30T22:22:11.916Z,87.61
2023-01-30T22:24:13.757Z,87.87
2023-01-30T22:26:17.479Z,87.20
2023-01-30T22:28:19.497Z,87.39
2023-01-30T22:30:21.401Z,86.92
2023-01-30T22:32:23.696Z,86.56
2023-01-30T22:34:25.522Z,87.26
2023-01-30T22:36:30.573Z,86.49
2023-01-30T22:38:33.291Z,86.78
2023-01-30T22:40:34.807Z,86.79
2023-01-30T22:42:36.410Z,86.95
2023-01-30T22:44:39.716Z,87.07
2023-01-30T22:46:41.456Z,87.43
2023-01-30T22:48:43.464Z,86.73
2023-01-30T22:50:45.081Z,86.46
2023-01-30T22:52:46.616Z,87.24
2023-01-30T22:54:48.609Z,87.23
2023-01-30T22:56:51.385Z,87.33
2023-01-30T22:58:53.444Z,87.77
2023-01-30T23:00:55.368Z,86.98
2023-01-30T23:02:57.408Z,87.42
2023-01-30T23:04:59.676Z,86.48
2023-01-30T23:07:01.188Z,87.29
2023-01-30T23:09:04.162Z,87.82
2023-01-30T23:11:17.414Z,87.41
2023-01-30T23:13:19.551Z,87.34
2023-01-30T23:15:21.536Z,86.75
2023-01-30T23:17:42.116Z,86.90
2023-01-30T23:19:43.675Z,87.04
2023-01-30T23:21:45.919Z,86.90
2023-01-30T23:23:47.654Z,88.13
2023-01-30T23:25:49.206Z,87.92
2023-01-30T23:27:50.718Z,87.77
2023-01-30T23:29:52.267Z,87.68
2023-01-30T23:31:53.965Z,87.71
2023-01-30T23:34:07.015Z,87.93
2023-01-30T23:36:11.456Z,87.97
2023-01-30T23:38:16.109Z,88.29
2023-01-30T23:40:17.755Z,88.17
2023-01-30T23:42:19.366Z,88.58
2023-01-30T23:44:20.891Z,89.24
2023-01-30T23:46:25.882Z,89.07
2023-01-30T23:48:27.469Z,88.09
2023-01-30T23:50:29.155Z,88.58
2023-01-30T23:52:31.697Z,88.77
2023-01-30T23:54:33.516Z,88.31
2023-01-30T23:56:39.849Z,88.73
2023-01-30T23:58:42.384Z,89.19
